createdAt,value
2022-12-13T00:00:38.119Z,97294.69
2022-12-13T00:03:04.838Z,97299.63
2022-12-13T00:05:33.075Z,97293.56
2022-12-13T00:08:00.389Z,97292.97
2022-12-13T00:10:27.719Z,97287.50
2022-12-13T00:12:54.527Z,97283.44
2022-12-13T00:15:21.374Z,97284.00
2022-12-13T00:17:48.060Z,97283.63
2022-12-13T00:20:14.671Z,97286.31
2022-12-13T00:22:42.772Z,97279.03
2022-12-13T00:25:09.472Z,97284.00
2022-12-13T00:27:36.145Z,97275.78
2022-12-13T00:30:03.034Z,97271.16
2022-12-13T00:32:29.764Z,97279.03
2022-12-13T00:34:56.480Z,97278.75
2022-12-13T00:37:23.165Z,97271.13
2022-12-13T00:39:51.986Z,97265.00
2022-12-13T00:42:18.661Z,97261.38
2022-12-13T00:44:45.252Z,97270.50
2022-12-13T00:47:11.868Z,97266.50
2022-12-13T00:49:38.851Z,97265.50
2022-12-13T00:52:05.497Z,97265.88
2022-12-13T00:54:33.905Z,97269.72
2022-12-13T00:57:01.951Z,97263.22
2022-12-13T00:59:28.814Z,97265.44
2022-12-13T01:01:55.571Z,97265.53
2022-12-13T01:04:22.389Z,97275.91
2022-12-13T01:06:51.324Z,97270.00
2022-12-13T01:09:20.185Z,97266.97
2022-12-13T01:11:47.870Z,97259.91
2022-12-13T01:14:19.410Z,97268.00
2022-12-13T01:16:46.192Z,97263.34
2022-12-13T01:19:12.849Z,97263.09
2022-12-13T01:21:39.550Z,97279.13
2022-12-13T01:24:07.042Z,97276.69
2022-12-13T01:26:34.553Z,97276.91
2022-12-13T01:29:01.307Z,97274.88
2022-12-13T01:31:29.357Z,97266.94
2022-12-13T01:33:56.419Z,97265.09
2022-12-13T01:36:27.332Z,97269.16
2022-12-13T01:38:58.730Z,97268.75
2022-12-13T01:41:27.752Z,97274.88
2022-12-13T01:43:57.471Z,97269.38
2022-12-13T01:46:24.197Z,97265.94
2022-12-13T01:48:59.629Z,97262.09
2022-12-13T01:51:29.681Z,97264.88
2022-12-13T01:53:59.045Z,97258.38
2022-12-13T01:56:31.594Z,97260.25
2022-12-13T01:59:00.777Z,97259.41
2022-12-13T02:01:28.345Z,97252.84
2022-12-13T02:03:56.497Z,97257.53
2022-12-13T02:06:30.434Z,97256.34
2022-12-13T02:09:00.646Z,97265.75
2022-12-13T02:11:28.523Z,97265.41
2022-12-13T02:13:55.168Z,97259.94
2022-12-13T02:16:35.012Z,97265.16
2022-12-13T02:19:26.385Z,97260.31
2022-12-13T02:22:06.002Z,97252.75
2022-12-13T02:24:52.622Z,97254.66
2022-12-13T02:27:42.850Z,97250.03
2022-12-13T02:30:24.550Z,97255.78
2022-12-13T02:33:07.053Z,97255.09
2022-12-13T02:35:43.095Z,97253.53
2022-12-13T02:38:21.473Z,97255.94
2022-12-13T02:41:00.636Z,97248.50
2022-12-13T02:43:33.720Z,97249.31
2022-12-13T02:46:04.823Z,97236.34
2022-12-13T02:48:35.071Z,97246.44
2022-12-13T02:51:05.427Z,97241.78
2022-12-13T02:53:33.655Z,97243.09
2022-12-13T02:56:00.977Z,97241.13
2022-12-13T02:58:33.082Z,97231.97
2022-12-13T03:01:29.127Z,97234.94
2022-12-13T03:04:06.578Z,97220.88
2022-12-13T03:06:43.769Z,97206.72
2022-12-13T03:09:25.419Z,97222.00
2022-12-13T03:12:28.808Z,97231.38
2022-12-13T03:15:00.922Z,97228.91
2022-12-13T03:17:36.256Z,97224.25
2022-12-13T03:20:04.054Z,97228.25
2022-12-13T03:22:48.934Z,97228.63
2022-12-13T03:25:31.603Z,97223.69
2022-12-13T03:28:01.455Z,97225.56
2022-12-13T03:30:29.911Z,97224.81
2022-12-13T03:32:58.014Z,97229.81
2022-12-13T03:35:25.085Z,97231.50
2022-12-13T03:38:01.925Z,97227.88
2022-12-13T03:40:30.390Z,97230.75
2022-12-13T03:42:57.346Z,97231.69
2022-12-13T03:45:24.174Z,97220.09
2022-12-13T03:47:50.879Z,97223.28
2022-12-13T03:50:27.140Z,97219.72
2022-12-13T03:52:58.404Z,97224.31
2022-12-13T03:55:25.138Z,97219.81
2022-12-13T03:57:51.729Z,97218.53
2022-12-13T04:00:18.601Z,97209.00
2022-12-13T04:02:45.280Z,97209.50
2022-12-13T04:05:11.901Z,97211.97
2022-12-13T04:07:40.307Z,97209.69
2022-12-13T04:10:26.497Z,97218.41
2022-12-13T04:13:12.354Z,97212.56
2022-12-13T04:15:39.368Z,97222.53
2022-12-13T04:18:06.575Z,97215.47
2022-12-13T04:20:33.342Z,97216.78
2022-12-13T04:23:01.340Z,97211.09
2022-12-13T04:25:37.176Z,97211.09
2022-12-13T04:28:03.890Z,97203.25
2022-12-13T04:30:30.565Z,97212.78
2022-12-13T04:32:57.231Z,97208.34
2022-12-13T04:35:23.990Z,97203.38
2022-12-13T04:37:50.659Z,97216.59
2022-12-13T04:40:22.089Z,97217.69
2022-12-13T04:42:54.102Z,97220.97
2022-12-13T04:45:22.697Z,97220.25
2022-12-13T04:47:49.919Z,97221.41
2022-12-13T04:50:16.785Z,97227.59
2022-12-13T04:52:44.868Z,97219.53
2022-12-13T04:55:11.780Z,97221.16
2022-12-13T04:57:39.948Z,97215.25
2022-12-13T05:00:09.855Z,97218.28
2022-12-13T05:02:36.945Z,97225.81
2022-12-13T05:05:03.891Z,97226.16
2022-12-13T05:07:30.606Z,97221.63
2022-12-13T05:09:57.234Z,97210.81
2022-12-13T05:12:23.929Z,97219.22
2022-12-13T05:14:52.226Z,97213.66
2022-12-13T05:17:19.053Z,97213.09
2022-12-13T05:19:45.744Z,97216.09
2022-12-13T05:22:19.865Z,97212.84
2022-12-13T05:24:47.280Z,97217.34
2022-12-13T05:27:25.250Z,97222.28
2022-12-13T05:30:03.895Z,97219.47
2022-12-13T05:32:33.730Z,97214.28
2022-12-13T05:35:10.031Z,97211.84
2022-12-13T05:37:36.682Z,97207.81
2022-12-13T05:40:03.685Z,97211.09
2022-12-13T05:42:30.296Z,97215.06
2022-12-13T05:44:58.498Z,97209.19
2022-12-13T05:47:25.209Z,97204.19
2022-12-13T05:49:52.152Z,97212.28
2022-12-13T05:52:20.614Z,97201.78
2022-12-13T05:54:47.567Z,97198.72
2022-12-13T05:57:14.290Z,97211.06
2022-12-13T05:59:40.964Z,97218.53
2022-12-13T06:02:09.092Z,97212.53
2022-12-13T06:04:35.840Z,97223.19
2022-12-13T06:07:02.546Z,97218.09
2022-12-13T06:09:29.252Z,97209.59
2022-12-13T06:12:01.044Z,97217.34
2022-12-13T06:14:28.369Z,97219.81
2022-12-13T06:16:55.437Z,97219.72
2022-12-13T06:19:24.021Z,97225.31
2022-12-13T06:21:50.999Z,97222.25
2022-12-13T06:24:19.667Z,97226.53
2022-12-13T06:26:46.815Z,97226.81
2022-12-13T06:29:23.986Z,97224.78
2022-12-13T06:31:53.686Z,97219.91
2022-12-13T06:34:20.406Z,97213.59
2022-12-13T06:36:48.928Z,97219.38
2022-12-13T06:39:18.246Z,97223.94
2022-12-13T06:41:45.286Z,97214.97
2022-12-13T06:44:11.965Z,97221.44
2022-12-13T06:46:40.902Z,97223.09
2022-12-13T06:49:07.831Z,97213.88
2022-12-13T06:51:35.009Z,97217.50
2022-12-13T06:54:03.032Z,97208.97
2022-12-13T06:56:30.261Z,97210.22
2022-12-13T06:59:01.729Z,97203.59
2022-12-13T07:01:36.888Z,97216.19
2022-12-13T07:04:04.815Z,97211.31
2022-12-13T07:06:31.410Z,97210.75
2022-12-13T07:08:58.467Z,97220.22
2022-12-13T07:11:29.027Z,97216.25
2022-12-13T07:13:55.982Z,97215.41
2022-12-13T07:16:24.005Z,97226.47
2022-12-13T07:18:54.528Z,97223.38
2022-12-13T07:21:29.171Z,97229.72
2022-12-13T07:23:56.175Z,97224.59
2022-12-13T07:26:23.235Z,97221.63
2022-12-13T07:28:55.327Z,97229.19
2022-12-13T07:31:24.211Z,97217.50
2022-12-13T07:33:51.195Z,97226.66
2022-12-13T07:36:19.959Z,97219.69
2022-12-13T07:38:53.243Z,97223.66
2022-12-13T07:41:23.316Z,97229.28
2022-12-13T07:43:55.146Z,97225.50
2022-12-13T07:46:32.028Z,97234.88
2022-12-13T07:49:02.025Z,97228.94
2022-12-13T07:51:28.878Z,97219.78
2022-12-13T07:53:55.853Z,97220.78
2022-12-13T07:56:22.607Z,97224.13
2022-12-13T07:58:49.308Z,97216.25
2022-12-13T08:01:18.371Z,97224.03
2022-12-13T08:03:47.948Z,97230.66
2022-12-13T08:06:14.999Z,97230.28
2022-12-13T08:08:41.765Z,97236.00
2022-12-13T08:11:10.562Z,97237.44
2022-12-13T08:13:38.653Z,97229.13
2022-12-13T08:16:26.759Z,97227.19
2022-12-13T08:19:02.970Z,97236.31
2022-12-13T08:24:22.654Z,97225.88
2022-12-13T08:26:49.375Z,97232.72
2022-12-13T08:29:23.096Z,97232.09
2022-12-13T08:32:01.542Z,97231.63
2022-12-13T08:34:30.128Z,97225.44
2022-12-13T08:37:02.389Z,97221.81
2022-12-13T08:39:30.394Z,97227.34
2022-12-13T08:42:15.770Z,97214.34
2022-12-13T08:44:44.871Z,97221.50
2022-12-13T08:47:11.547Z,97218.34
2022-12-13T08:49:41.118Z,97229.50
2022-12-13T08:52:07.854Z,97222.53
2022-12-13T08:54:34.545Z,97234.81
2022-12-13T08:57:01.687Z,97228.44
2022-12-13T08:59:28.377Z,97221.84
2022-12-13T09:01:58.757Z,97222.03
2022-12-13T09:04:31.442Z,97225.38
2022-12-13T09:07:01.275Z,97228.56
2022-12-13T09:09:28.841Z,97224.84
2022-12-13T09:11:59.421Z,97229.59
2022-12-13T09:14:33.738Z,97233.28
2022-12-13T09:17:03.396Z,97232.91
2022-12-13T09:19:36.984Z,97226.63
2022-12-13T09:22:05.789Z,97226.53
2022-12-13T09:24:41.429Z,97220.19
2022-12-13T09:27:27.560Z,97224.78
2022-12-13T09:29:54.966Z,97235.72
2022-12-13T09:32:21.816Z,97235.72
2022-12-13T09:34:48.481Z,97245.03
2022-12-13T09:37:22.868Z,97236.47
2022-12-13T09:39:55.094Z,97238.34
2022-12-13T09:42:30.898Z,97245.75
2022-12-13T09:45:01.139Z,97241.34
2022-12-13T09:47:35.144Z,97235.22
2022-12-13T09:50:06.807Z,97237.75
2022-12-13T09:52:38.579Z,97244.22
2022-12-13T09:55:18.881Z,97233.75
2022-12-13T09:57:46.167Z,97240.09
2022-12-13T10:00:16.933Z,97241.69
2022-12-13T10:02:46.104Z,97242.19
2022-12-13T10:05:22.553Z,97237.28
2022-12-13T10:07:55.515Z,97227.41
2022-12-13T10:10:23.195Z,97226.84
2022-12-13T10:12:56.262Z,97226.06
2022-12-13T10:15:24.305Z,97224.88
2022-12-13T10:17:55.013Z,97228.53
2022-12-13T10:20:26.119Z,97229.97
2022-12-13T10:23:31.544Z,97236.22
2022-12-13T10:25:50.738Z,97220.59
2022-12-13T10:28:24.293Z,97218.16
2022-12-13T10:30:51.070Z,97213.91
2022-12-13T10:33:24.951Z,97208.44
2022-12-13T10:36:14.694Z,97204.78
2022-12-13T10:38:45.611Z,97199.31
2022-12-13T10:41:30.886Z,97201.38
2022-12-13T10:44:21.455Z,97196.47
2022-12-13T10:46:51.242Z,97192.19
2022-12-13T10:49:20.270Z,97192.97
2022-12-13T10:51:47.509Z,97189.53
2022-12-13T10:54:19.926Z,97175.69
2022-12-13T10:56:48.924Z,97182.16
2022-12-13T10:59:26.627Z,97175.22
2022-12-13T11:01:54.179Z,97179.44
2022-12-13T11:04:28.166Z,97185.44
2022-12-13T11:06:57.084Z,97182.22
2022-12-13T11:09:38.642Z,97172.13
2022-12-13T11:12:14.711Z,97170.03
2022-12-13T11:14:50.151Z,97167.38
2022-12-13T11:17:22.627Z,97158.53
2022-12-13T11:19:52.637Z,97156.09
2022-12-13T11:22:22.073Z,97160.38
2022-12-13T11:24:53.557Z,97157.75
2022-12-13T11:27:49.143Z,97158.28
2022-12-13T11:30:21.539Z,97155.41
2022-12-13T11:33:05.423Z,97148.72
2022-12-13T11:35:42.986Z,97142.69
2022-12-13T11:38:24.320Z,97136.47
2022-12-13T11:40:59.078Z,97133.13
2022-12-13T11:43:31.467Z,97122.81
2022-12-13T11:46:03.051Z,97127.50
2022-12-13T11:48:39.292Z,97125.22
2022-12-13T11:51:09.331Z,97126.97
2022-12-13T11:53:46.426Z,97129.22
2022-12-13T11:56:23.799Z,97123.09
2022-12-13T11:59:05.939Z,97126.22
2022-12-13T12:01:43.248Z,97120.91
2022-12-13T12:04:21.590Z,97121.41
2022-12-13T12:06:53.222Z,97121.78
2022-12-13T12:09:23.409Z,97127.16
2022-12-13T12:12:00.180Z,97106.69
2022-12-13T12:14:37.904Z,97095.34
2022-12-13T12:17:06.726Z,97103.69
2022-12-13T12:19:37.907Z,97105.19
2022-12-13T12:22:27.681Z,97098.50
2022-12-13T12:25:07.558Z,97104.78
2022-12-13T12:27:43.470Z,97098.28
2022-12-13T12:30:22.692Z,97098.31
2022-12-13T12:32:58.703Z,97103.34
2022-12-13T12:35:41.796Z,97101.75
2022-12-13T12:38:35.582Z,97081.88
2022-12-13T12:41:22.299Z,97087.78
2022-12-13T12:43:56.008Z,97074.56
2022-12-13T12:47:01.727Z,97077.28
2022-12-13T12:49:53.890Z,97086.38
2022-12-13T12:52:28.630Z,97081.31
2022-12-13T12:55:04.179Z,97090.72
2022-12-13T12:57:40.679Z,97088.84
2022-12-13T13:00:15.141Z,97083.34
2022-12-13T13:02:50.319Z,97079.94
2022-12-13T13:05:22.900Z,97073.03
2022-12-13T13:07:53.318Z,97073.88
2022-12-13T13:10:26.950Z,97074.88
2022-12-13T13:13:12.552Z,97074.25
2022-12-13T13:15:57.143Z,97070.53
2022-12-13T13:18:44.810Z,97068.09
2022-12-13T13:21:35.451Z,97070.28
2022-12-13T13:24:17.038Z,97075.00
2022-12-13T13:26:45.808Z,97068.84
2022-12-13T13:29:43.852Z,97072.13
2022-12-13T13:32:31.187Z,97061.63
2022-12-13T13:35:36.906Z,97074.84
2022-12-13T13:38:04.872Z,97068.28
2022-12-13T13:40:36.228Z,97068.72
2022-12-13T13:43:14.213Z,97062.66
2022-12-13T13:45:57.373Z,97056.16
2022-12-13T13:48:45.921Z,97054.00
2022-12-13T13:52:16.582Z,97060.72
2022-12-13T13:55:16.851Z,97070.50
2022-12-13T13:58:21.621Z,97074.97
2022-12-13T14:01:26.587Z,97077.22
2022-12-13T14:04:17.738Z,97077.81
2022-12-13T14:07:18.160Z,97065.03
2022-12-13T14:10:00.247Z,97072.56
2022-12-13T14:13:04.939Z,97072.78
2022-12-13T14:15:50.069Z,97082.72
2022-12-13T14:18:51.432Z,97087.63
2022-12-13T14:21:26.600Z,97080.72
2022-12-13T14:24:04.440Z,97080.88
2022-12-13T14:26:43.613Z,97084.34
2022-12-13T14:29:15.633Z,97086.16
2022-12-13T14:31:44.796Z,97088.22
2022-12-13T14:34:22.403Z,97083.78
2022-12-13T14:36:58.311Z,97074.22
2022-12-13T14:39:26.015Z,97074.63
2022-12-13T14:41:56.744Z,97077.69
2022-12-13T14:44:26.879Z,97077.88
2022-12-13T14:46:55.813Z,97081.75
2022-12-13T14:49:25.108Z,97068.78
2022-12-13T14:52:01.707Z,97071.81
2022-12-13T14:54:33.943Z,97065.13
2022-12-13T14:57:03.888Z,97069.00
2022-12-13T14:59:33.257Z,97071.47
2022-12-13T15:02:02.743Z,97073.69
2022-12-13T15:04:31.894Z,97074.91
2022-12-13T15:07:06.941Z,97078.16
2022-12-13T15:09:37.291Z,97066.97
2022-12-13T15:12:14.799Z,97072.06
2022-12-13T15:14:57.172Z,97057.69
2022-12-13T15:17:27.872Z,97058.25
2022-12-13T15:19:55.314Z,97058.66
2022-12-13T15:22:29.141Z,97054.44
2022-12-13T15:24:57.969Z,97053.00
2022-12-13T15:27:25.883Z,97058.47
2022-12-13T15:29:54.273Z,97051.41
2022-12-13T15:32:24.764Z,97044.28
2022-12-13T15:34:51.964Z,97030.28
2022-12-13T15:37:29.061Z,97030.69
2022-12-13T15:40:00.688Z,97039.66
2022-12-13T15:42:32.462Z,97031.09
2022-12-13T15:45:01.494Z,97035.38
2022-12-13T15:47:29.313Z,97029.47
2022-12-13T15:49:58.864Z,97031.09
2022-12-13T15:52:31.618Z,97026.44
2022-12-13T15:55:01.865Z,97014.28
2022-12-13T15:57:31.149Z,97023.00
2022-12-13T16:00:30.942Z,97020.75
2022-12-13T16:03:09.530Z,97018.97
2022-12-13T16:05:39.091Z,97008.19
2022-12-13T16:08:16.681Z,97007.78
2022-12-13T16:10:47.014Z,97014.47
2022-12-13T16:13:25.927Z,97012.25
2022-12-13T16:15:59.862Z,97015.50
2022-12-13T16:18:31.713Z,97016.94
2022-12-13T16:20:58.903Z,97010.66
2022-12-13T16:23:27.845Z,97007.59
2022-12-13T16:25:54.792Z,97005.16
2022-12-13T16:28:26.323Z,96999.47
2022-12-13T16:31:01.914Z,96995.81
2022-12-13T16:33:28.744Z,96993.78
2022-12-13T16:35:56.052Z,96996.25
2022-12-13T16:38:26.423Z,96993.41
2022-12-13T16:41:08.417Z,96991.38
2022-12-13T16:43:40.322Z,96992.81
2022-12-13T16:47:16.058Z,96992.19
2022-12-13T16:48:55.028Z,96987.53
2022-12-13T16:51:22.481Z,96980.44
2022-12-13T16:53:50.783Z,96985.69
2022-12-13T16:56:21.894Z,96975.97
2022-12-13T16:58:50.619Z,96969.06
2022-12-13T17:01:20.181Z,96969.28
2022-12-13T17:03:48.584Z,96967.03
2022-12-13T17:06:20.628Z,96967.47
2022-12-13T17:08:48.008Z,96955.72
2022-12-13T17:11:18.283Z,96967.25
2022-12-13T17:13:50.395Z,96963.81
2022-12-13T17:16:19.693Z,96965.84
2022-12-13T17:18:47.170Z,96964.19
2022-12-13T17:21:14.679Z,96965.03
2022-12-13T17:23:42.319Z,96971.91
2022-12-13T17:26:10.840Z,96968.25
2022-12-13T17:28:38.346Z,96965.44
2022-12-13T17:31:09.009Z,96956.91
2022-12-13T17:33:37.016Z,96959.97
2022-12-13T17:36:05.762Z,96963.41
2022-12-13T17:38:33.695Z,96963.22
2022-12-13T17:41:01.434Z,96956.13
2022-12-13T17:43:34.207Z,96960.78
2022-12-13T17:46:03.955Z,96956.91
2022-12-13T17:48:39.764Z,96951.44
2022-12-13T17:51:10.619Z,96951.03
2022-12-13T17:53:39.592Z,96949.41
2022-12-13T17:56:08.965Z,96952.06
2022-12-13T17:58:36.048Z,96948.41
2022-12-13T18:01:11.671Z,96961.16
2022-12-13T18:03:39.964Z,96958.53
2022-12-13T18:06:07.453Z,96954.06
2022-12-13T18:08:35.058Z,96966.03
2022-12-13T18:11:31.316Z,96967.06
2022-12-13T18:13:48.904Z,96970.50
2022-12-13T18:16:23.370Z,96965.22
2022-12-13T18:18:54.778Z,96958.34
2022-12-13T18:21:24.555Z,96951.84
2022-12-13T18:23:55.009Z,96937.47
2022-12-13T18:26:22.507Z,96944.16
2022-12-13T18:28:49.347Z,96930.34
2022-12-13T18:31:19.026Z,96931.13
2022-12-13T18:33:47.800Z,96931.53
2022-12-13T18:36:16.624Z,96933.72
2022-12-13T18:38:44.019Z,96929.53
2022-12-13T18:41:16.690Z,96937.81
2022-12-13T18:43:44.503Z,96937.03
2022-12-13T18:46:12.703Z,96937.06
2022-12-13T18:48:39.646Z,96933.78
2022-12-13T18:51:08.332Z,96933.00
2022-12-13T18:53:37.730Z,96938.66
2022-12-13T18:56:07.002Z,96934.41
2022-12-13T18:58:35.121Z,96941.13
2022-12-13T19:01:03.144Z,96939.69
2022-12-13T19:03:31.230Z,96934.41
2022-12-13T19:05:58.981Z,96946.78
2022-12-13T19:08:26.512Z,96944.53
2022-12-13T19:10:55.018Z,96931.97
2022-12-13T19:13:23.022Z,96933.00
2022-12-13T19:15:50.996Z,96929.16
2022-12-13T19:18:19.030Z,96926.09
2022-12-13T19:20:47.272Z,96923.47
2022-12-13T19:23:15.905Z,96918.81
2022-12-13T19:25:44.046Z,96906.06
2022-12-13T19:28:19.465Z,96909.69
2022-12-13T19:30:48.961Z,96907.47
2022-12-13T19:33:19.622Z,96901.38
2022-12-13T19:35:48.005Z,96898.75
2022-12-13T19:38:16.712Z,96895.72
2022-12-13T19:40:45.193Z,96888.22
2022-12-13T19:43:13.315Z,96893.28
2022-12-13T19:45:45.094Z,96888.22
2022-12-13T19:48:12.934Z,96882.94
2022-12-13T19:50:43.008Z,96888.22
2022-12-13T19:53:12.554Z,96873.63
2022-12-13T19:55:45.045Z,96877.09
2022-12-13T19:58:16.816Z,96868.63
2022-12-13T20:00:48.068Z,96871.44
2022-12-13T20:03:16.455Z,96863.34
2022-12-13T20:05:45.946Z,96864.56
2022-12-13T20:08:15.596Z,96865.13
2022-12-13T20:10:45.136Z,96869.59
2022-12-13T20:13:14.528Z,96867.75
2022-12-13T20:15:50.962Z,96861.69
2022-12-13T20:18:20.226Z,96861.91
2022-12-13T20:21:10.543Z,96862.69
2022-12-13T20:23:37.553Z,96862.28
2022-12-13T20:26:07.655Z,96866.53
2022-12-13T20:28:36.648Z,96859.03
2022-12-13T20:31:07.959Z,96858.41
2022-12-13T20:33:34.807Z,96854.56
2022-12-13T20:36:23.569Z,96855.56
2022-12-13T20:38:51.079Z,96851.72
2022-12-13T20:41:17.887Z,96851.13
2022-12-13T20:43:48.465Z,96852.94
2022-12-13T20:46:19.936Z,96844.00
2022-12-13T20:48:49.178Z,96837.91
2022-12-13T20:51:20.692Z,96842.38
2022-12-13T20:53:49.048Z,96828.38
2022-12-13T20:56:19.221Z,96824.75
2022-12-13T20:58:49.257Z,96831.63
2022-12-13T21:01:20.572Z,96830.19
2022-12-13T21:03:48.461Z,96827.38
2022-12-13T21:06:17.233Z,96825.94
2022-12-13T21:08:53.841Z,96824.75
2022-12-13T21:11:28.368Z,96833.66
2022-12-13T21:14:01.218Z,96835.06
2022-12-13T21:16:38.452Z,96838.09
2022-12-13T21:19:06.258Z,96828.16
2022-12-13T21:21:35.495Z,96821.06
2022-12-13T21:24:04.506Z,96819.50
2022-12-13T21:26:35.795Z,96825.00
2022-12-13T21:29:06.931Z,96819.91
2022-12-13T21:31:39.574Z,96818.28
2022-12-13T21:34:07.512Z,96813.00
2022-12-13T21:36:38.075Z,96807.34
2022-12-13T21:39:08.063Z,96801.47
2022-12-13T21:41:35.917Z,96796.63
2022-12-13T21:44:02.728Z,96784.06
2022-12-13T21:46:55.121Z,96783.66
2022-12-13T21:49:19.860Z,96783.06
2022-12-13T21:51:48.343Z,96778.59
2022-12-13T21:54:18.687Z,96783.44
2022-12-13T21:57:04.510Z,96762.84
2022-12-13T21:59:33.095Z,96752.31
2022-12-13T22:02:14.642Z,96740.50
2022-12-13T22:04:46.720Z,96739.06
2022-12-13T22:07:16.508Z,96729.44
2022-12-13T22:09:45.522Z,96724.53
2022-12-13T22:12:20.243Z,96719.84
2022-12-13T22:14:49.081Z,96711.94
2022-12-13T22:17:17.187Z,96713.34
2022-12-13T22:19:49.168Z,96708.06
2022-12-13T22:22:18.890Z,96714.91
2022-12-13T22:24:53.170Z,96708.84
2022-12-13T22:27:24.370Z,96707.59
2022-12-13T22:29:52.955Z,96707.16
2022-12-13T22:32:21.725Z,96706.00
2022-12-13T22:34:51.434Z,96703.75
2022-12-13T22:37:20.637Z,96690.19
2022-12-13T22:39:49.546Z,96694.81
2022-12-13T22:42:18.582Z,96681.22
2022-12-13T22:44:47.544Z,96680.41
2022-12-13T22:47:15.513Z,96687.31
2022-12-13T22:49:43.176Z,96688.53
2022-12-13T22:52:12.763Z,96684.03
2022-12-13T22:54:40.811Z,96684.63
2022-12-13T22:57:07.919Z,96677.94
2022-12-13T22:59:36.045Z,96681.44
2022-12-13T23:02:04.452Z,96674.31
2022-12-13T23:04:32.150Z,96677.78
2022-12-13T23:07:00.118Z,96669.88
2022-12-13T23:09:30.079Z,96669.25
2022-12-13T23:12:18.101Z,96668.84
2022-12-13T23:14:45.327Z,96672.69
2022-12-13T23:17:13.834Z,96663.78
2022-12-13T23:19:50.193Z,96666.84
2022-12-13T23:22:21.942Z,96662.19
2022-12-13T23:24:51.488Z,96664.25
2022-12-13T23:27:21.429Z,96653.16
2022-12-13T23:29:48.501Z,96650.31
2022-12-13T23:32:16.396Z,96640.44
2022-12-13T23:34:43.981Z,96635.38
2022-12-13T23:37:10.941Z,96639.47
2022-12-13T23:39:37.620Z,96642.88
2022-12-13T23:42:05.797Z,96646.91
2022-12-13T23:44:32.623Z,96648.44
2022-12-13T23:46:59.256Z,96648.50
2022-12-13T23:49:25.860Z,96641.09
2022-12-13T23:51:53.731Z,96642.34
2022-12-13T23:54:20.457Z,96640.34
2022-12-13T23:56:47.581Z,96635.66
2022-12-13T23:59:15.523Z,96627.16
